Time;durP1;ratioP1;P1;durP2;ratioP2;P2;SDS_P1;SDS_P2;PMS_P1;PMS_P2;Temp;Humidity;BMP_temperature;BMP_pressure;BME280_temperature;BME280_humidity;BME280_pressure;Samples;Min_cycle;Max_cycle;Signal;HPM_P1;HPM_P2
2024/04/17 00:02:08;;;;;;;;;;;;;;;17.23;100.00;93350.81;11399818;26;19934;-76
2024/04/17 00:07:09;;;;;;;;;;;;;;;17.41;100.00;93322.19;11396530;26;20473;-75
2024/04/17 00:12:09;;;;;;;;;;;;;;;17.42;100.00;93336.53;11402232;26;19927;-76
2024/04/17 00:17:09;;;;;;;;;;;;;;;17.39;100.00;93318.25;11409723;26;20247;-76
2024/04/17 00:22:09;;;;;;;;;;;;;;;17.48;100.00;93307.97;11400815;26;19995;-75
2024/04/17 00:27:10;;;;;;;;;;;;;;;17.36;100.00;93302.66;11407857;26;19934;-75
2024/04/17 00:32:10;;;;;;;;;;;;;;;17.36;100.00;93270.06;11405996;26;20347;-76
2024/04/17 00:37:10;;;;;;;;;;;;;;;17.30;100.00;93287.75;11406473;26;19939;-76
2024/04/17 00:42:10;;;;;;;;;;;;;;;17.28;100.00;93273.75;11405625;26;19927;-76
2024/04/17 00:47:11;;;;;;;;;;;;;;;17.21;100.00;93269.72;11408290;26;19996;-76
2024/04/17 00:52:11;;;;;;;;;;;;;;;17.19;100.00;93257.63;11410732;26;19927;-76
2024/04/17 00:57:14;;;;;;;;;;;;;;;17.09;100.00;93269.78;11410303;26;19934;-75
2024/04/17 01:02:14;;;;;;;;;;;;;;;16.98;100.00;93271.47;11407590;26;19927;-75
2024/04/17 01:07:14;;;;;;;;;;;;;;;17.14;100.00;93253.25;11405354;26;20296;-75
2024/04/17 01:12:15;;;;;;;;;;;;;;;17.22;100.00;93240.66;11401882;26;20438;-76
2024/04/17 01:17:15;;;;;;;;;;;;;;;17.11;100.00;93231.44;11405142;26;19936;-76
2024/04/17 01:22:15;;;;;;;;;;;;;;;16.89;100.00;93236.34;11401994;26;19933;-76
2024/04/17 01:27:15;;;;;;;;;;;;;;;16.84;100.00;93237.38;11407520;26;20002;-77
2024/04/17 01:32:16;;;;;;;;;;;;;;;16.72;100.00;93230.09;11375066;26;19927;-75
2024/04/17 01:37:17;;;;;;;;;;;;;;;16.74;100.00;93210.75;11407458;26;19934;-75
2024/04/17 01:42:17;;;;;;;;;;;;;;;16.69;100.00;93216.47;11375558;26;19927;-75
2024/04/17 01:47:17;;;;;;;;;;;;;;;16.78;100.00;93213.56;11407712;26;20062;-75
2024/04/17 01:52:17;;;;;;;;;;;;;;;16.83;100.00;93197.81;11407546;26;20262;-75
2024/04/17 01:57:18;;;;;;;;;;;;;;;16.83;100.00;93186.16;11374047;26;19934;-76
2024/04/17 02:02:18;;;;;;;;;;;;;;;16.86;100.00;93177.34;11405422;26;20416;-76
2024/04/17 02:07:18;;;;;;;;;;;;;;;16.83;100.00;93154.41;11401713;26;19969;-75
2024/04/17 02:12:18;;;;;;;;;;;;;;;16.68;100.00;93147.06;11400457;26;19927;-75
2024/04/17 02:17:18;;;;;;;;;;;;;;;16.63;100.00;93144.59;11373436;26;20231;-75
2024/04/17 02:22:19;;;;;;;;;;;;;;;16.57;100.00;93150.28;11327665;26;19928;-75
2024/04/17 02:27:19;;;;;;;;;;;;;;;16.58;100.00;93127.47;11398584;26;19939;-74
2024/04/17 02:32:19;;;;;;;;;;;;;;;16.68;100.00;93125.38;11404406;26;19954;-75
2024/04/17 02:37:19;;;;;;;;;;;;;;;16.57;100.00;93111.53;11373536;26;19942;-74
2024/04/17 02:42:20;;;;;;;;;;;;;;;16.71;100.00;93095.59;11402421;26;19934;-76
2024/04/17 02:47:20;;;;;;;;;;;;;;;16.79;100.00;93103.91;11404458;26;19928;-76
2024/04/17 02:52:20;;;;;;;;;;;;;;;16.91;100.00;93106.53;11405170;26;19935;-75
2024/04/17 02:57:20;;;;;;;;;;;;;;;16.92;100.00;93086.41;11398978;26;19934;-75
2024/04/17 03:02:21;;;;;;;;;;;;;;;17.07;100.00;93079.38;11403808;26;19928;-76
2024/04/17 03:07:21;;;;;;;;;;;;;;;17.17;100.00;93083.44;11397688;26;19935;-75
2024/04/17 03:12:21;;;;;;;;;;;;;;;17.33;100.00;93084.19;11384219;26;19927;-76
2024/04/17 03:17:22;;;;;;;;;;;;;;;17.41;100.00;93096.78;11366719;26;19991;-76
2024/04/17 03:22:22;;;;;;;;;;;;;;;17.45;99.19;93096.06;11356189;26;19942;-76
2024/04/17 03:27:22;;;;;;;;;;;;;;;17.63;99.41;93107.28;11400391;26;19951;-76
2024/04/17 03:32:23;;;;;;;;;;;;;;;17.72;100.00;93094.25;11374305;26;20586;-76
2024/04/17 03:37:23;;;;;;;;;;;;;;;17.76;100.00;93106.78;11408389;26;20103;-76
2024/04/17 03:42:23;;;;;;;;;;;;;;;17.74;99.32;93083.81;11408644;26;19927;-76
2024/04/17 03:47:23;;;;;;;;;;;;;;;17.71;99.15;93104.34;11378280;26;20005;-76
2024/04/17 03:52:24;;;;;;;;;;;;;;;17.66;99.06;93120.94;11366684;26;19947;-75
2024/04/17 03:57:26;;;;;;;;;;;;;;;17.75;98.72;93120.72;11409254;26;19950;-75
2024/04/17 04:02:27;;;;;;;;;;;;;;;17.69;99.46;93111.28;11371843;26;19927;-75
2024/04/17 04:07:27;;;;;;;;;;;;;;;17.63;100.00;93101.84;11406100;26;20346;-75
2024/04/17 04:12:27;;;;;;;;;;;;;;;17.55;100.00;93109.06;11405322;26;19936;-76
2024/04/17 04:17:27;;;;;;;;;;;;;;;17.59;100.00;93112.63;11374012;26;19934;-75
2024/04/17 04:22:28;;;;;;;;;;;;;;;17.60;100.00;93108.78;11406587;26;20007;-74
2024/04/17 04:27:28;;;;;;;;;;;;;;;17.42;100.00;93101.03;11403718;26;19928;-74
2024/04/17 04:32:28;;;;;;;;;;;;;;;17.14;100.00;93103.94;11367789;26;20358;-75
2024/04/17 04:37:29;;;;;;;;;;;;;;;16.58;100.00;93116.59;11407292;26;20314;-74
2024/04/17 04:42:30;;;;;;;;;;;;;;;16.47;100.00;93104.72;11374233;26;19991;-74
2024/04/17 04:47:31;;;;;;;;;;;;;;;16.53;100.00;93099.81;11407340;26;19995;-74
2024/04/17 04:52:31;;;;;;;;;;;;;;;16.53;100.00;93116.09;11404421;26;19928;-69
2024/04/17 04:57:31;;;;;;;;;;;;;;;16.18;100.00;93114.06;11405322;26;19927;-70
2024/04/17 05:02:31;;;;;;;;;;;;;;;16.02;100.00;93119.47;11405124;26;20351;-69
2024/04/17 05:07:32;;;;;;;;;;;;;;;16.03;100.00;93129.16;11406324;26;19996;-71
2024/04/17 05:12:32;;;;;;;;;;;;;;;15.94;100.00;93131.25;11400288;26;20351;-71
2024/04/17 05:17:32;;;;;;;;;;;;;;;15.79;100.00;93120.00;11367540;26;19927;-70
2024/04/17 05:22:33;;;;;;;;;;;;;;;15.85;100.00;93101.59;11371067;26;20294;-69
2024/04/17 05:27:33;;;;;;;;;;;;;;;15.86;100.00;93098.53;11359686;26;20251;-69
2024/04/17 05:32:33;;;;;;;;;;;;;;;15.81;100.00;93112.34;11402288;26;19947;-71
2024/04/17 05:37:33;;;;;;;;;;;;;;;15.56;100.00;93106.22;11332229;26;19931;-71
2024/04/17 05:42:34;;;;;;;;;;;;;;;15.50;100.00;93113.81;11398190;26;19935;-71
2024/04/17 05:47:34;;;;;;;;;;;;;;;15.35;100.00;93095.59;11401237;26;19951;-71
2024/04/17 05:52:34;;;;;;;;;;;;;;;15.09;100.00;93104.88;11360369;26;20383;-69
2024/04/17 05:57:34;;;;;;;;;;;;;;;14.93;100.00;93093.19;11394686;26;19934;-70
2024/04/17 06:02:36;;;;;;;;;;;;;;;14.84;100.00;93069.75;11396631;26;20168;-71
2024/04/17 06:07:40;;;;;;;;;;;;;;;14.70;100.00;93072.81;11360927;26;19927;-70
2024/04/17 06:12:40;;;;;;;;;;;;;;;14.59;100.00;93076.28;11403074;26;19927;-71
2024/04/17 06:17:41;;;;;;;;;;;;;;;14.57;100.00;93073.94;11403816;26;19935;-70
2024/04/17 06:22:41;;;;;;;;;;;;;;;14.58;100.00;93090.94;11398538;26;20323;-71
2024/04/17 06:27:41;;;;;;;;;;;;;;;14.62;100.00;93103.47;11401591;26;20239;-69
2024/04/17 06:32:41;;;;;;;;;;;;;;;14.66;100.00;93092.78;11340709;26;19995;-70
2024/04/17 06:37:42;;;;;;;;;;;;;;;14.74;100.00;93082.97;11393668;26;20630;-70
2024/04/17 06:42:42;;;;;;;;;;;;;;;14.84;100.00;93080.56;11367406;26;19938;-70
2024/04/17 06:47:45;;;;;;;;;;;;;;;14.85;100.00;93065.94;11395198;26;19935;-70
2024/04/17 06:52:45;;;;;;;;;;;;;;;14.83;100.00;93051.97;11398630;26;20015;-70
2024/04/17 06:57:45;;;;;;;;;;;;;;;14.98;100.00;93047.75;11402006;26;19927;-70
2024/04/17 07:02:46;;;;;;;;;;;;;;;15.07;100.00;93066.56;11397369;26;20353;-71
2024/04/17 07:07:46;;;;;;;;;;;;;;;15.34;100.00;93056.09;11407112;26;20705;-71
2024/04/17 07:12:46;;;;;;;;;;;;;;;15.58;100.00;93054.44;11410114;26;19927;-71
2024/04/17 07:17:47;;;;;;;;;;;;;;;15.71;100.00;93059.44;11409387;26;20353;-71
2024/04/17 07:22:47;;;;;;;;;;;;;;;15.87;100.00;93067.59;11405880;26;19935;-71
2024/04/17 07:27:47;;;;;;;;;;;;;;;15.83;100.00;93064.00;11402657;26;19971;-71
2024/04/17 07:32:48;;;;;;;;;;;;;;;15.80;100.00;93093.72;11406692;26;19935;-71
2024/04/17 07:37:48;;;;;;;;;;;;;;;15.15;100.00;93081.88;11374196;26;19935;-70
2024/04/17 07:42:49;;;;;;;;;;;;;;;14.70;100.00;93077.44;11404448;26;19931;-70
2024/04/17 07:47:49;;;;;;;;;;;;;;;14.23;100.00;93027.31;11404822;26;19928;-70
2024/04/17 07:52:50;;;;;;;;;;;;;;;13.87;100.00;93026.19;11405423;26;19934;-70
2024/04/17 07:57:50;;;;;;;;;;;;;;;13.67;100.00;93017.84;11401509;26;20631;-70
2024/04/17 08:02:51;;;;;;;;;;;;;;;13.45;100.00;93013.63;11403428;26;19932;-70
2024/04/17 08:07:51;;;;;;;;;;;;;;;13.46;100.00;93023.28;11400887;26;19955;-70
2024/04/17 08:12:53;;;;;;;;;;;;;;;13.65;100.00;93019.28;11406344;26;20343;-70
2024/04/17 08:17:54;;;;;;;;;;;;;;;13.86;100.00;93046.22;11406755;26;20248;-70
2024/04/17 08:22:54;;;;;;;;;;;;;;;14.05;100.00;93058.38;11405739;26;19942;-70
2024/04/17 08:27:55;;;;;;;;;;;;;;;14.16;100.00;93046.00;11403549;26;20247;-70
2024/04/17 08:32:55;;;;;;;;;;;;;;;14.19;100.00;93061.53;11405137;26;19928;-70
2024/04/17 08:37:55;;;;;;;;;;;;;;;14.16;100.00;93062.22;11396518;26;19932;-70
2024/04/17 08:42:59;;;;;;;;;;;;;;;14.34;100.00;93043.88;11372829;26;19931;-70
2024/04/17 08:48:00;;;;;;;;;;;;;;;14.58;100.00;93031.47;11407060;26;20250;-70
2024/04/17 08:53:03;;;;;;;;;;;;;;;14.82;100.00;93025.28;11403506;26;20070;-70
2024/04/17 08:58:03;;;;;;;;;;;;;;;15.04;100.00;93018.53;11363282;26;20278;-71
2024/04/17 09:03:07;;;;;;;;;;;;;;;15.21;100.00;92999.31;11400581;26;19939;-70
2024/04/17 09:08:08;;;;;;;;;;;;;;;15.43;100.00;92986.34;11402404;26;19995;-70
2024/04/17 09:13:08;;;;;;;;;;;;;;;15.63;100.00;92981.84;11398939;26;19996;-70
2024/04/17 09:18:09;;;;;;;;;;;;;;;15.61;100.00;92988.75;11400350;26;19971;-70
2024/04/17 09:23:09;;;;;;;;;;;;;;;15.63;100.00;92986.44;11400457;26;19927;-70
2024/04/17 09:28:11;;;;;;;;;;;;;;;15.57;100.00;92985.94;11401343;26;19928;-71
2024/04/17 09:33:12;;;;;;;;;;;;;;;15.82;100.00;92978.50;11404863;26;19935;-71
2024/04/17 09:38:13;;;;;;;;;;;;;;;16.00;100.00;92978.13;11405978;26;20293;-70
2024/04/17 09:43:21;;;;;;;;;;;;;;;16.33;100.00;92990.50;11404114;26;19995;-70
2024/04/17 09:48:22;;;;;;;;;;;;;;;16.72;100.00;92980.53;11402340;26;19934;-70
2024/04/17 09:53:23;;;;;;;;;;;;;;;16.98;100.00;92962.09;11405946;26;19934;-71
2024/04/17 09:58:25;;;;;;;;;;;;;;;17.12;100.00;92967.81;11372064;26;19927;-70
2024/04/17 10:03:27;;;;;;;;;;;;;;;17.39;100.00;92973.34;11403964;26;19927;-71
2024/04/17 10:08:29;;;;;;;;;;;;;;;17.66;100.00;92957.91;11401595;26;19933;-70
2024/04/17 10:13:30;;;;;;;;;;;;;;;17.95;100.00;92957.66;11403352;26;19927;-71
2024/04/17 10:18:30;;;;;;;;;;;;;;;18.36;100.00;92931.47;11405448;26;19935;-71
2024/04/17 10:23:31;;;;;;;;;;;;;;;18.68;100.00;92939.31;11404041;26;20339;-71
2024/04/17 10:28:31;;;;;;;;;;;;;;;20.84;100.00;92913.28;11403040;26;19939;-71
2024/04/17 10:33:34;;;;;;;;;;;;;;;24.93;86.68;92903.50;11370264;26;20327;-69
2024/04/17 10:38:37;;;;;;;;;;;;;;;26.66;51.13;92903.03;11398093;26;19927;-71
2024/04/17 10:43:37;;;;;;;;;;;;;;;27.15;47.86;92877.72;11403114;26;19951;-71
2024/04/17 10:48:47;;;;;;;;;;;;;;;28.18;41.20;92870.38;11403615;26;19938;-71
2024/04/17 10:53:48;;;;;;;;;;;;;;;29.64;36.88;92869.66;11402467;26;20396;-71
2024/04/17 10:58:48;;;;;;;;;;;;;;;28.59;36.84;92852.38;11400087;26;19984;-70
2024/04/17 11:03:48;;;;;;;;;;;;;;;27.30;41.00;92854.16;11367970;26;19955;-70
2024/04/17 11:08:49;;;;;;;;;;;;;;;26.66;40.37;92848.69;11369447;26;19959;-70
2024/04/17 11:13:50;;;;;;;;;;;;;;;26.49;39.98;92841.56;11396470;26;19935;-70
2024/04/17 11:18:51;;;;;;;;;;;;;;;25.75;40.76;92837.63;11398585;26;19987;-70
2024/04/17 11:23:51;;;;;;;;;;;;;;;22.91;47.92;92857.53;11400542;26;19935;-70
2024/04/17 11:28:51;;;;;;;;;;;;;;;21.95;52.15;92866.31;11367400;26;19932;-70
2024/04/17 11:33:51;;;;;;;;;;;;;;;21.35;57.62;92856.88;11401336;26;19931;-70
2024/04/17 11:38:52;;;;;;;;;;;;;;;21.78;60.30;92862.41;11401625;26;20374;-70
2024/04/17 11:43:52;;;;;;;;;;;;;;;20.95;73.94;92900.47;11368536;26;19927;-70
2024/04/17 11:48:52;;;;;;;;;;;;;;;19.84;78.37;92886.88;11367611;26;20299;-69
2024/04/17 11:53:53;;;;;;;;;;;;;;;19.15;82.96;92906.47;11407772;26;19998;-70
2024/04/17 11:58:53;;;;;;;;;;;;;;;18.31;89.07;92901.09;11406488;26;20360;-69
2024/04/17 12:03:53;;;;;;;;;;;;;;;17.69;95.88;92913.72;11405702;26;19950;-70
2024/04/17 12:08:53;;;;;;;;;;;;;;;16.58;100.00;92944.97;11406494;26;19927;-70
2024/04/17 12:13:54;;;;;;;;;;;;;;;15.72;100.00;92933.69;11404836;26;19943;-69
2024/04/17 12:18:54;;;;;;;;;;;;;;;14.64;100.00;92940.91;11372460;26;19936;-69
2024/04/17 12:23:55;;;;;;;;;;;;;;;14.44;100.00;92931.81;11375495;26;20000;-69
2024/04/17 12:28:55;;;;;;;;;;;;;;;13.86;100.00;92951.69;11374104;26;19931;-69
2024/04/17 12:33:56;;;;;;;;;;;;;;;13.50;100.00;92958.63;11408792;26;19955;-69
2024/04/17 12:38:56;;;;;;;;;;;;;;;12.61;100.00;92965.97;11329214;26;20395;-70
2024/04/17 12:43:56;;;;;;;;;;;;;;;11.92;100.00;92961.78;11390838;26;20583;-70
2024/04/17 12:48:57;;;;;;;;;;;;;;;11.53;100.00;92979.84;11406212;26;19931;-69
2024/04/17 12:53:57;;;;;;;;;;;;;;;10.47;100.00;93000.69;11371803;26;20706;-70
2024/04/17 12:58:57;;;;;;;;;;;;;;;10.57;100.00;93026.47;11406435;26;20266;-69
2024/04/17 13:04:00;;;;;;;;;;;;;;;9.96;100.00;93053.94;11373216;26;19927;-70
2024/04/17 13:09:00;;;;;;;;;;;;;;;8.96;100.00;93111.38;11404679;26;19935;-69
2024/04/17 13:14:00;;;;;;;;;;;;;;;8.64;100.00;93172.88;11405432;26;19934;-70
2024/04/17 13:19:00;;;;;;;;;;;;;;;8.33;100.00;93154.72;11398847;26;20350;-73
2024/04/17 13:24:01;;;;;;;;;;;;;;;8.03;100.00;93180.16;11372090;26;19935;-71
2024/04/17 13:29:01;;;;;;;;;;;;;;;8.37;100.00;93206.56;11405539;26;19934;-72
2024/04/17 13:34:01;;;;;;;;;;;;;;;8.58;100.00;93174.06;11403869;26;19927;-73
2024/04/17 13:39:02;;;;;;;;;;;;;;;8.39;100.00;93190.22;11401268;26;19945;-73
2024/04/17 13:44:02;;;;;;;;;;;;;;;8.68;100.00;93202.53;11401314;26;19955;-73
2024/04/17 13:49:02;;;;;;;;;;;;;;;9.12;100.00;93178.84;11371605;26;20449;-73
2024/04/17 13:54:03;;;;;;;;;;;;;;;9.96;100.00;93177.38;11403296;26;19939;-73
2024/04/17 13:59:03;;;;;;;;;;;;;;;10.46;100.00;93180.97;11400543;26;19933;-78
2024/04/17 14:04:03;;;;;;;;;;;;;;;10.03;100.00;93204.59;11373669;26;19983;-77
2024/04/17 14:09:03;;;;;;;;;;;;;;;9.31;100.00;93213.53;11370888;26;19939;-78
2024/04/17 14:14:04;;;;;;;;;;;;;;;9.05;100.00;93200.69;11402996;26;19927;-78
2024/04/17 14:19:04;;;;;;;;;;;;;;;8.95;100.00;93201.69;11406831;26;20256;-77
2024/04/17 14:24:04;;;;;;;;;;;;;;;8.49;100.00;93238.22;11401951;26;20266;-75
2024/04/17 14:29:05;;;;;;;;;;;;;;;8.38;100.00;93260.91;11401643;26;19928;-77
2024/04/17 14:34:05;;;;;;;;;;;;;;;8.14;100.00;93275.22;11381297;26;20346;-78
2024/04/17 14:39:05;;;;;;;;;;;;;;;8.41;100.00;93219.34;11400251;26;19927;-76
2024/04/17 14:44:05;;;;;;;;;;;;;;;8.08;100.00;93236.28;11401987;26;19927;-76
2024/04/17 14:49:06;;;;;;;;;;;;;;;8.01;100.00;93252.69;11400348;26;20818;-74
2024/04/17 14:54:06;;;;;;;;;;;;;;;7.99;100.00;93252.19;11368851;26;20252;-74
2024/04/17 14:59:07;;;;;;;;;;;;;;;8.01;100.00;93276.78;11369385;26;20250;-76
2024/04/17 15:04:13;;;;;;;;;;;;;;;8.07;100.00;93242.69;11396129;26;19934;-74
2024/04/17 15:09:15;;;;;;;;;;;;;;;8.50;100.00;93249.75;11399175;26;20214;-73
2024/04/17 15:14:15;;;;;;;;;;;;;;;8.57;100.00;93249.31;11396270;26;19999;-74
2024/04/17 15:19:15;;;;;;;;;;;;;;;8.29;100.00;93268.00;11400201;26;19961;-73
2024/04/17 15:24:17;;;;;;;;;;;;;;;8.27;100.00;93288.94;11400700;26;20030;-73
2024/04/17 15:29:18;;;;;;;;;;;;;;;8.32;100.00;93303.03;11408720;26;20343;-73
2024/04/17 15:34:18;;;;;;;;;;;;;;;8.27;100.00;93308.44;11408193;26;19999;-73
2024/04/17 15:39:23;;;;;;;;;;;;;;;8.48;100.00;93284.03;11370789;26;20007;-73
2024/04/17 15:44:23;;;;;;;;;;;;;;;8.61;100.00;93277.91;11407332;26;20809;-73
2024/04/17 15:49:23;;;;;;;;;;;;;;;8.56;100.00;93288.72;11407298;26;19931;-74
2024/04/17 15:54:24;;;;;;;;;;;;;;;8.62;100.00;93302.81;11407057;26;19927;-74
2024/04/17 15:59:28;;;;;;;;;;;;;;;8.71;100.00;93272.34;11408203;26;19927;-87
2024/04/17 16:04:29;;;;;;;;;;;;;;;8.63;100.00;93275.72;11405182;26;19927;-73
2024/04/17 16:09:29;;;;;;;;;;;;;;;8.71;100.00;93261.66;11369476;26;19942;-73
2024/04/17 16:14:30;;;;;;;;;;;;;;;8.56;100.00;93269.97;11372055;26;19934;-73
2024/04/17 16:19:31;;;;;;;;;;;;;;;8.47;100.00;93303.88;11370782;26;19934;-73
2024/04/17 16:24:31;;;;;;;;;;;;;;;8.70;100.00;93280.69;11406590;26;20243;-73
2024/04/17 16:29:31;;;;;;;;;;;;;;;8.86;100.00;93251.72;11406802;26;20218;-76
2024/04/17 16:34:32;;;;;;;;;;;;;;;8.71;100.00;93258.97;11391826;26;19932;-74
2024/04/17 16:39:32;;;;;;;;;;;;;;;8.60;100.00;93254.13;11402579;26;19934;-73
2024/04/17 16:44:35;;;;;;;;;;;;;;;8.29;100.00;93268.81;11403174;26;19996;-79
2024/04/17 16:49:35;;;;;;;;;;;;;;;8.23;100.00;93277.22;11404211;26;19976;-74
2024/04/17 16:54:36;;;;;;;;;;;;;;;8.10;100.00;93292.16;11371791;26;20406;-70
2024/04/17 16:59:36;;;;;;;;;;;;;;;8.32;100.00;93259.41;11370977;26;20035;-74
2024/04/17 17:04:37;;;;;;;;;;;;;;;8.53;100.00;93228.50;11406032;26;19928;-80
2024/04/17 17:09:37;;;;;;;;;;;;;;;8.60;100.00;93248.75;11405674;26;19935;-71
2024/04/17 17:14:37;;;;;;;;;;;;;;;8.69;100.00;93285.25;11406030;26;20333;-77
2024/04/17 17:19:37;;;;;;;;;;;;;;;8.61;100.00;93299.34;11402522;26;19935;-74
2024/04/17 17:24:38;;;;;;;;;;;;;;;8.77;100.00;93291.03;11402887;26;20363;-75
2024/04/17 17:29:38;;;;;;;;;;;;;;;8.91;100.00;93297.16;11401352;26;19938;-74
2024/04/17 17:34:38;;;;;;;;;;;;;;;9.03;100.00;93320.78;11369933;26;20659;-76
2024/04/17 17:39:39;;;;;;;;;;;;;;;9.11;100.00;93330.00;11404314;26;19947;-76
2024/04/17 17:44:40;;;;;;;;;;;;;;;9.00;100.00;93337.44;11405511;26;19935;-75
2024/04/17 17:49:49;;;;;;;;;;;;;;;8.91;100.00;93366.81;11373634;26;19939;-76
2024/04/17 17:54:50;;;;;;;;;;;;;;;8.87;100.00;93353.25;11403257;26;19931;-75
2024/04/17 17:59:50;;;;;;;;;;;;;;;8.87;100.00;93344.41;11371395;26;19971;-74
2024/04/17 18:04:51;;;;;;;;;;;;;;;8.85;100.00;93344.69;11403697;26;19928;-76
2024/04/17 18:09:51;;;;;;;;;;;;;;;8.83;100.00;93364.81;11394215;26;19934;-77
2024/04/17 18:14:51;;;;;;;;;;;;;;;8.59;100.00;93379.16;11349847;26;20367;-76
2024/04/17 18:19:53;;;;;;;;;;;;;;;8.31;100.00;93373.69;11371281;26;19932;-74
2024/04/17 18:24:53;;;;;;;;;;;;;;;7.95;100.00;93368.88;11385904;26;20326;-74
2024/04/17 18:29:53;;;;;;;;;;;;;;;7.94;100.00;93372.66;11400525;26;19928;-73
2024/04/17 18:34:54;;;;;;;;;;;;;;;7.82;100.00;93383.78;11399637;26;19927;-70
2024/04/17 18:39:54;;;;;;;;;;;;;;;7.73;100.00;93382.03;11322108;26;19929;-72
2024/04/17 18:44:55;;;;;;;;;;;;;;;7.57;100.00;93398.28;11129868;26;20295;-80
2024/04/17 18:49:55;;;;;;;;;;;;;;;7.52;100.00;93417.06;11119687;26;19930;-76
2024/04/17 18:54:55;;;;;;;;;;;;;;;7.54;100.00;93428.28;11159584;26;20342;-74
2024/04/17 18:59:56;;;;;;;;;;;;;;;7.41;100.00;93387.00;11152378;26;19998;-75
2024/04/17 19:04:56;;;;;;;;;;;;;;;7.27;100.00;93391.44;11159340;26;19946;-74
2024/04/17 19:09:56;;;;;;;;;;;;;;;7.00;100.00;93398.97;11162741;26;19936;-79
2024/04/17 19:14:58;;;;;;;;;;;;;;;6.95;100.00;93391.00;11150872;26;19929;-81
2024/04/17 19:19:58;;;;;;;;;;;;;;;6.96;100.00;93352.53;11132957;26;20344;-80
2024/04/17 19:24:59;;;;;;;;;;;;;;;6.72;100.00;93378.41;11115212;26;20256;-75
2024/04/17 19:29:59;;;;;;;;;;;;;;;6.62;100.00;93422.03;11143118;26;19936;-75
2024/04/17 19:35:00;;;;;;;;;;;;;;;6.17;100.00;93432.78;11147140;26;20323;-74
2024/04/17 19:40:00;;;;;;;;;;;;;;;5.87;100.00;93474.50;11156678;26;20257;-72
2024/04/17 19:45:01;;;;;;;;;;;;;;;5.90;100.00;93471.31;11149733;26;19929;-71
2024/04/17 19:50:01;;;;;;;;;;;;;;;5.61;100.00;93487.16;11137064;26;19940;-72
2024/04/17 19:55:01;;;;;;;;;;;;;;;5.51;100.00;93498.66;11171891;26;20244;-71
2024/04/17 20:00:02;;;;;;;;;;;;;;;5.69;100.00;93501.81;11221985;26;20002;-71
2024/04/17 20:05:02;;;;;;;;;;;;;;;5.94;100.00;93498.22;11191978;26;19929;-71
2024/04/17 20:10:03;;;;;;;;;;;;;;;6.10;100.00;93482.97;11196483;26;19940;-71
2024/04/17 20:15:03;;;;;;;;;;;;;;;6.03;100.00;93466.47;11225287;26;19955;-71
2024/04/17 20:20:07;;;;;;;;;;;;;;;6.04;100.00;93441.41;11187383;26;19932;-71
2024/04/17 20:25:08;;;;;;;;;;;;;;;6.22;100.00;93402.59;11204373;26;20354;-71
2024/04/17 20:30:10;;;;;;;;;;;;;;;6.04;100.00;93425.38;11205570;26;19941;-71
2024/04/17 20:35:10;;;;;;;;;;;;;;;5.92;100.00;93434.50;11175641;26;19993;-71
2024/04/17 20:40:11;;;;;;;;;;;;;;;6.03;100.00;93423.78;11243919;26;19996;-70
2024/04/17 20:45:11;;;;;;;;;;;;;;;5.98;100.00;93422.75;11268940;26;20331;-70
2024/04/17 20:50:11;;;;;;;;;;;;;;;6.02;100.00;93419.56;11284195;26;20004;-75
2024/04/17 20:55:13;;;;;;;;;;;;;;;6.08;100.00;93427.22;11283053;26;19987;-76
2024/04/17 21:00:14;;;;;;;;;;;;;;;5.89;100.00;93412.91;11209597;26;19929;-71
2024/04/17 21:05:14;;;;;;;;;;;;;;;6.04;100.00;93412.06;11249100;26;19928;-72
2024/04/17 21:10:15;;;;;;;;;;;;;;;6.02;100.00;93399.00;11243535;26;20331;-71
2024/04/17 21:15:15;;;;;;;;;;;;;;;5.91;100.00;93398.22;11251574;26;20033;-71
2024/04/17 21:20:18;;;;;;;;;;;;;;;5.57;100.00;93427.50;11222648;26;19936;-72
2024/04/17 21:25:18;;;;;;;;;;;;;;;5.55;100.00;93443.75;11220842;26;19933;-70
2024/04/17 21:30:19;;;;;;;;;;;;;;;5.39;100.00;93463.53;11212775;26;19980;-71
2024/04/17 21:35:19;;;;;;;;;;;;;;;5.67;100.00;93424.00;11238633;26;19997;-71
2024/04/17 21:40:19;;;;;;;;;;;;;;;5.69;100.00;93427.16;11249797;26;19956;-70
2024/04/17 21:45:20;;;;;;;;;;;;;;;5.69;100.00;93422.63;11251233;26;20369;-71
2024/04/17 21:50:21;;;;;;;;;;;;;;;5.73;100.00;93417.56;11252936;26;19940;-70
2024/04/17 21:55:21;;;;;;;;;;;;;;;5.73;100.00;93415.66;11255052;26;19956;-70
2024/04/17 22:00:21;;;;;;;;;;;;;;;5.77;100.00;93427.38;11226349;26;19932;-71
2024/04/17 22:05:21;;;;;;;;;;;;;;;5.72;100.00;93439.94;11253604;26;19936;-71
2024/04/17 22:10:21;;;;;;;;;;;;;;;5.75;100.00;93418.06;11254243;26;19929;-71
2024/04/17 22:15:22;;;;;;;;;;;;;;;5.69;100.00;93440.50;11240918;26;19929;-71
2024/04/17 22:20:22;;;;;;;;;;;;;;;5.36;100.00;93445.41;11214315;26;20239;-71
2024/04/17 22:25:22;;;;;;;;;;;;;;;5.45;100.00;93451.78;11253010;26;19997;-71
2024/04/17 22:30:23;;;;;;;;;;;;;;;5.46;100.00;93459.50;11218361;26;20017;-71
2024/04/17 22:35:23;;;;;;;;;;;;;;;5.47;100.00;93460.31;11247681;26;19935;-70
2024/04/17 22:40:23;;;;;;;;;;;;;;;5.36;100.00;93477.38;11221316;26;20251;-71
2024/04/17 22:45:24;;;;;;;;;;;;;;;5.13;100.00;93480.41;11211238;26;20279;-71
2024/04/17 22:50:24;;;;;;;;;;;;;;;5.33;100.00;93480.59;11242037;26;19937;-71
2024/04/17 22:55:25;;;;;;;;;;;;;;;5.25;100.00;93472.09;11237975;26;20006;-71
2024/04/17 23:00:25;;;;;;;;;;;;;;;5.31;100.00;93467.56;11217790;26;20331;-71
2024/04/17 23:05:25;;;;;;;;;;;;;;;5.33;100.00;93470.75;11210056;26;19966;-72
2024/04/17 23:10:25;;;;;;;;;;;;;;;5.24;100.00;93467.84;11211651;26;19952;-71
2024/04/17 23:15:27;;;;;;;;;;;;;;;5.31;100.00;93464.88;11251929;26;19929;-72
2024/04/17 23:20:27;;;;;;;;;;;;;;;5.26;100.00;93462.22;11196232;26;20006;-71
2024/04/17 23:25:27;;;;;;;;;;;;;;;5.13;100.00;93443.13;11248605;26;19997;-71
2024/04/17 23:30:28;;;;;;;;;;;;;;;5.17;100.00;93438.03;11245132;26;19936;-71
2024/04/17 23:35:28;;;;;;;;;;;;;;;5.17;100.00;93431.91;11248322;26;19928;-73
2024/04/17 23:40:28;;;;;;;;;;;;;;;5.17;100.00;93431.91;11211058;26;19997;-74
2024/04/17 23:45:28;;;;;;;;;;;;;;;5.10;100.00;93426.88;11251739;26;19929;-71
2024/04/17 23:50:29;;;;;;;;;;;;;;;4.94;100.00;93431.44;11257650;26;20420;-70
2024/04/17 23:55:29;;;;;;;;;;;;;;;5.00;100.00;93430.34;11257746;26;19935;-71
